createdAt,value
2019-02-21T00:01:02.641Z,14.98
2019-02-21T00:03:31.363Z,15.45
2019-02-21T00:06:00.106Z,15.10
2019-02-21T00:08:28.907Z,16.10
2019-02-21T00:10:57.606Z,14.60
2019-02-21T00:13:26.362Z,14.90
2019-02-21T00:15:55.079Z,15.85
2019-02-21T00:18:23.802Z,16.23
2019-02-21T00:20:52.521Z,15.83
2019-02-21T00:23:21.232Z,15.53
2019-02-21T00:25:50.158Z,16.32
2019-02-21T00:28:18.918Z,16.95
2019-02-21T00:30:47.618Z,16.45
2019-02-21T00:33:16.342Z,17.05
2019-02-21T00:35:45.118Z,15.55
2019-02-21T00:38:13.826Z,16.40
2019-02-21T00:40:42.535Z,17.57
2019-02-21T00:43:11.306Z,17.40
2019-02-21T00:45:40.018Z,17.50
2019-02-21T00:48:08.722Z,18.17
2019-02-21T00:50:37.754Z,17.02
2019-02-21T00:53:06.450Z,16.02
2019-02-21T00:55:37.325Z,16.50
2019-02-21T00:58:13.990Z,16.65
2019-02-21T01:00:46.599Z,17.05
2019-02-21T01:03:13.148Z,16.27
2019-02-21T01:05:41.890Z,15.93
2019-02-21T01:08:10.672Z,16.37
2019-02-21T01:10:39.398Z,15.98
2019-02-21T01:13:08.150Z,16.57
2019-02-21T01:15:36.886Z,16.27
2019-02-21T01:18:05.618Z,16.50
2019-02-21T01:20:34.364Z,16.25
2019-02-21T01:23:03.414Z,15.75
2019-02-21T01:25:32.135Z,17.05
2019-02-21T01:28:01.050Z,16.90
2019-02-21T01:30:29.762Z,16.02
2019-02-21T01:32:58.468Z,16.07
2019-02-21T01:35:27.198Z,16.93
2019-02-21T01:37:55.911Z,16.23
2019-02-21T01:40:24.650Z,15.28
2019-02-21T01:42:53.376Z,15.78
2019-02-21T01:45:22.084Z,15.32
2019-02-21T01:47:50.789Z,14.53
2019-02-21T01:50:19.518Z,15.60
2019-02-21T01:52:48.286Z,15.88
2019-02-21T01:55:16.994Z,15.80
2019-02-21T01:57:45.722Z,16.10
2019-02-21T02:00:14.510Z,16.10
2019-02-21T02:02:43.274Z,17.30
2019-02-21T02:05:11.999Z,16.17
2019-02-21T02:07:40.707Z,16.75
2019-02-21T02:10:10.794Z,16.48
2019-02-21T02:12:39.986Z,16.30
2019-02-21T02:15:08.845Z,15.30
2019-02-21T02:17:37.546Z,16.73
2019-02-21T02:20:07.688Z,17.30
2019-02-21T02:22:36.506Z,17.12
2019-02-21T02:25:05.260Z,18.05
2019-02-21T02:27:34.053Z,18.12
2019-02-21T02:30:02.904Z,16.95
2019-02-21T02:32:31.685Z,16.90
2019-02-21T02:35:00.539Z,17.00
2019-02-21T02:37:29.234Z,16.80
2019-02-21T02:39:57.982Z,18.52
2019-02-21T02:42:26.703Z,18.77
2019-02-21T02:44:55.425Z,19.07
2019-02-21T02:47:24.128Z,18.35
2019-02-21T02:49:52.869Z,19.27
2019-02-21T02:52:21.578Z,17.27
2019-02-21T02:54:50.302Z,17.82
2019-02-21T02:57:19.116Z,17.98
2019-02-21T02:59:47.838Z,19.45
2019-02-21T03:02:16.542Z,18.73
2019-02-21T03:04:45.382Z,18.77
2019-02-21T03:07:14.117Z,18.90
2019-02-21T03:09:42.907Z,18.10
2019-02-21T03:12:11.622Z,19.00
2019-02-21T03:14:40.324Z,18.23
2019-02-21T03:17:09.074Z,18.82
2019-02-21T03:19:37.810Z,18.95
2019-02-21T03:22:06.527Z,20.12
2019-02-21T03:24:35.239Z,20.17
2019-02-21T03:27:03.961Z,19.98
2019-02-21T03:29:32.668Z,20.12
2019-02-21T03:32:01.407Z,21.77
2019-02-21T03:34:30.175Z,20.82
2019-02-21T03:36:58.871Z,20.25
2019-02-21T03:39:27.627Z,21.15
2019-02-21T03:41:56.358Z,21.23
2019-02-21T03:44:25.053Z,23.02
2019-02-21T03:46:53.805Z,21.17
2019-02-21T03:49:22.717Z,23.40
2019-02-21T03:51:51.409Z,20.97
2019-02-21T03:54:20.155Z,21.20
2019-02-21T03:56:48.862Z,22.87
2019-02-21T03:59:17.603Z,23.02
2019-02-21T04:01:46.365Z,24.20
2019-02-21T04:04:15.110Z,23.55
2019-02-21T04:06:44.667Z,22.95
2019-02-21T04:09:13.409Z,23.02
2019-02-21T04:11:42.158Z,23.67
2019-02-21T04:14:10.958Z,24.40
2019-02-21T04:16:40.005Z,24.15
2019-02-21T04:19:08.749Z,24.77
2019-02-21T04:21:37.455Z,24.25
2019-02-21T04:24:06.274Z,23.85
2019-02-21T04:26:35.163Z,25.90
2019-02-21T04:29:04.240Z,24.55
2019-02-21T04:31:32.966Z,23.30
2019-02-21T04:34:02.646Z,24.30
2019-02-21T04:36:31.378Z,23.77
2019-02-21T04:39:00.160Z,24.35
2019-02-21T04:41:30.071Z,24.92
2019-02-21T04:43:59.530Z,24.87
2019-02-21T04:46:28.539Z,25.48
2019-02-21T04:48:57.350Z,26.62
2019-02-21T04:51:26.148Z,25.15
2019-02-21T04:53:54.938Z,25.72
2019-02-21T04:56:23.640Z,25.95
2019-02-21T04:58:52.343Z,27.27
2019-02-21T05:01:21.174Z,28.40
2019-02-21T05:03:49.958Z,28.35
2019-02-21T05:06:18.657Z,28.65
2019-02-21T05:08:47.631Z,29.72
2019-02-21T05:11:16.338Z,28.12
2019-02-21T05:13:45.059Z,29.95
2019-02-21T05:16:13.846Z,29.30
2019-02-21T05:18:42.689Z,29.55
2019-02-21T05:21:11.422Z,30.55
2019-02-21T05:23:40.138Z,32.53
2019-02-21T05:26:10.490Z,31.20
2019-02-21T05:28:41.154Z,31.70
2019-02-21T05:31:15.595Z,33.28
2019-02-21T05:33:55.441Z,32.42
2019-02-21T05:36:32.045Z,33.60
2019-02-21T05:39:17.986Z,35.48
2019-02-21T05:42:10.776Z,32.73
2019-02-21T05:44:45.991Z,35.20
2019-02-21T05:47:28.727Z,34.65
2019-02-21T05:50:19.619Z,34.83
2019-02-21T05:53:04.444Z,34.85
2019-02-21T05:55:42.093Z,37.50
2019-02-21T05:58:20.489Z,34.08
2019-02-21T06:01:08.534Z,34.65
2019-02-21T06:03:43.351Z,35.13
2019-02-21T06:06:28.762Z,36.48
2019-02-21T06:09:17.382Z,35.60
2019-02-21T06:12:05.262Z,36.03
2019-02-21T06:14:48.541Z,36.45
2019-02-21T06:17:34.228Z,36.88
2019-02-21T06:20:28.558Z,36.25
2019-02-21T06:23:19.625Z,38.58
2019-02-21T06:25:56.711Z,36.17
2019-02-21T06:28:30.350Z,35.05
2019-02-21T06:31:02.320Z,37.55
2019-02-21T06:33:31.600Z,37.05
2019-02-21T06:36:00.348Z,37.05
2019-02-21T06:38:29.510Z,35.43
2019-02-21T06:40:58.239Z,34.92
2019-02-21T06:43:27.044Z,35.30
2019-02-21T06:45:57.919Z,34.70
2019-02-21T06:48:26.604Z,35.25
2019-02-21T06:50:55.587Z,36.20
2019-02-21T06:53:24.430Z,35.08
2019-02-21T06:55:53.135Z,36.75
2019-02-21T06:58:21.863Z,36.15
2019-02-21T07:00:50.566Z,35.33
2019-02-21T07:03:19.273Z,34.58
2019-02-21T07:05:48.062Z,36.05
2019-02-21T07:08:16.794Z,34.83
2019-02-21T07:10:47.657Z,35.20
2019-02-21T07:13:26.139Z,35.75
2019-02-21T07:15:47.050Z,33.67
2019-02-21T07:18:15.794Z,33.67
2019-02-21T07:20:44.514Z,35.23
2019-02-21T07:23:13.226Z,35.13
2019-02-21T07:25:44.781Z,35.35
2019-02-21T07:28:15.795Z,35.05
2019-02-21T07:30:44.114Z,35.03
2019-02-21T07:33:13.364Z,35.33
2019-02-21T07:35:42.893Z,32.80
2019-02-21T07:38:11.606Z,34.38
2019-02-21T07:40:40.387Z,35.13
2019-02-21T07:43:09.179Z,33.50
2019-02-21T07:45:38.023Z,33.02
2019-02-21T07:48:06.772Z,34.38
2019-02-21T07:50:35.531Z,33.85
2019-02-21T07:53:04.427Z,32.28
2019-02-21T07:55:33.171Z,34.20
2019-02-21T07:58:03.949Z,34.33
2019-02-21T08:00:32.379Z,33.92
2019-02-21T08:03:01.110Z,31.93
2019-02-21T08:05:29.936Z,34.35
2019-02-21T08:07:58.766Z,34.30
2019-02-21T08:10:33.601Z,32.35
2019-02-21T08:12:57.959Z,33.40
2019-02-21T08:15:27.793Z,33.45
2019-02-21T08:17:56.718Z,33.58
2019-02-21T08:20:33.918Z,33.15
2019-02-21T08:22:57.001Z,31.37
2019-02-21T08:25:25.731Z,31.82
2019-02-21T08:27:54.496Z,33.23
2019-02-21T08:30:23.236Z,32.15
2019-02-21T08:33:05.315Z,33.92
2019-02-21T08:35:34.052Z,32.98
2019-02-21T08:38:02.844Z,32.33
2019-02-21T08:40:31.791Z,31.10
2019-02-21T08:43:00.518Z,31.82
2019-02-21T08:45:29.355Z,32.33
2019-02-21T08:47:58.112Z,31.52
2019-02-21T08:50:26.918Z,31.95
2019-02-21T08:52:55.642Z,32.20
2019-02-21T08:55:24.563Z,33.23
2019-02-21T08:57:53.351Z,31.87
2019-02-21T09:00:22.101Z,31.90
2019-02-21T09:02:50.866Z,33.23
2019-02-21T09:05:19.606Z,32.80
2019-02-21T09:07:48.334Z,32.08
2019-02-21T09:10:17.071Z,33.63
2019-02-21T09:12:48.423Z,33.53
2019-02-21T09:15:17.675Z,35.25
2019-02-21T09:17:47.403Z,33.98
2019-02-21T09:20:16.175Z,33.98
2019-02-21T09:22:44.907Z,34.60
2019-02-21T09:25:15.231Z,35.05
2019-02-21T09:27:44.105Z,33.05
2019-02-21T09:30:15.026Z,34.40
2019-02-21T09:32:43.820Z,33.48
2019-02-21T09:35:12.631Z,33.55
2019-02-21T09:37:41.383Z,32.90
2019-02-21T09:40:11.108Z,31.55
2019-02-21T09:42:39.861Z,33.83
2019-02-21T09:45:14.949Z,32.30
2019-02-21T09:47:43.831Z,31.12
2019-02-21T09:50:12.955Z,31.37
2019-02-21T09:52:41.711Z,29.95
2019-02-21T09:55:11.938Z,29.63
2019-02-21T09:57:40.691Z,30.20
2019-02-21T10:00:19.450Z,30.02
2019-02-21T10:02:48.217Z,28.52
2019-02-21T10:05:17.081Z,28.80
2019-02-21T10:07:45.908Z,25.95
2019-02-21T10:10:16.242Z,25.40
2019-02-21T10:12:45.126Z,25.92
2019-02-21T10:15:14.574Z,27.80
2019-02-21T10:17:44.727Z,28.17
2019-02-21T10:20:15.736Z,29.57
2019-02-21T10:22:44.543Z,28.85
2019-02-21T10:25:16.142Z,28.37
2019-02-21T10:27:44.871Z,29.67
2019-02-21T10:30:14.519Z,30.68
2019-02-21T10:32:43.277Z,27.63
2019-02-21T10:35:12.087Z,27.73
2019-02-21T10:37:40.827Z,26.60
2019-02-21T10:40:10.467Z,25.17
2019-02-21T10:42:39.234Z,26.60
2019-02-21T10:45:10.731Z,23.73
2019-02-21T10:47:39.465Z,24.40
2019-02-21T10:50:13.909Z,22.60
2019-02-21T10:52:41.737Z,24.47
2019-02-21T10:55:10.678Z,22.73
2019-02-21T10:57:39.434Z,24.77
2019-02-21T11:00:12.219Z,24.47
2019-02-21T11:02:40.971Z,22.73
2019-02-21T11:05:09.751Z,24.20
2019-02-21T11:07:38.499Z,24.13
2019-02-21T11:10:07.903Z,22.30
2019-02-21T11:12:36.638Z,21.40
2019-02-21T11:15:07.859Z,21.43
2019-02-21T11:17:36.586Z,21.20
2019-02-21T11:20:06.539Z,20.73
2019-02-21T11:22:36.198Z,20.90
2019-02-21T11:25:05.415Z,19.60
2019-02-21T11:27:34.162Z,20.17
2019-02-21T11:30:03.023Z,20.40
2019-02-21T11:32:31.829Z,21.10
2019-02-21T11:35:06.129Z,19.43
2019-02-21T11:37:42.631Z,18.97
2019-02-21T11:40:05.559Z,20.20
2019-02-21T11:42:34.655Z,19.77
2019-02-21T11:45:03.468Z,20.90
2019-02-21T11:47:32.360Z,20.17
2019-02-21T11:50:01.156Z,20.20
2019-02-21T11:52:29.876Z,20.73
2019-02-21T11:54:58.686Z,18.10
2019-02-21T11:57:27.418Z,17.60
2019-02-21T11:59:56.147Z,18.53
2019-02-21T12:02:24.963Z,17.43
2019-02-21T12:04:57.152Z,18.13
2019-02-21T12:07:25.872Z,16.20
2019-02-21T12:09:54.763Z,17.20
2019-02-21T12:12:23.489Z,17.10
2019-02-21T12:14:52.263Z,18.17
2019-02-21T12:17:21.116Z,18.20
2019-02-21T12:19:49.830Z,17.57
2019-02-21T12:22:18.555Z,18.10
2019-02-21T12:24:47.330Z,17.10
2019-02-21T12:27:16.071Z,18.30
2019-02-21T12:29:44.795Z,17.03
2019-02-21T12:32:13.532Z,18.43
2019-02-21T12:34:42.271Z,18.60
2019-02-21T12:37:11.016Z,17.70
2019-02-21T12:39:39.786Z,17.37
2019-02-21T12:42:08.571Z,16.83
2019-02-21T12:44:37.450Z,18.77
2019-02-21T12:47:06.207Z,17.97
2019-02-21T12:49:34.967Z,17.87
2019-02-21T12:52:03.727Z,20.20
2019-02-21T12:54:32.532Z,20.33
2019-02-21T12:57:01.297Z,20.62
2019-02-21T12:59:30.114Z,20.53
2019-02-21T13:01:58.849Z,20.57
2019-02-21T13:04:27.608Z,21.23
2019-02-21T13:06:56.647Z,20.52
2019-02-21T13:09:25.359Z,21.43
2019-02-21T13:11:54.125Z,22.07
2019-02-21T13:14:23.051Z,24.25
2019-02-21T13:16:51.791Z,25.00
2019-02-21T13:19:20.542Z,25.32
2019-02-21T13:21:49.274Z,25.03
2019-02-21T13:24:18.142Z,25.72
2019-02-21T13:26:46.930Z,25.35
2019-02-21T13:29:15.668Z,28.15
2019-02-21T13:31:44.416Z,27.85
2019-02-21T13:34:13.232Z,31.37
2019-02-21T13:36:41.962Z,30.45
2019-02-21T13:39:10.723Z,34.60
2019-02-21T13:41:39.743Z,34.78
2019-02-21T13:44:08.463Z,37.23
2019-02-21T13:46:40.218Z,36.30
2019-02-21T13:49:07.753Z,38.05
2019-02-21T13:51:36.504Z,39.65
2019-02-21T13:54:05.237Z,37.98
2019-02-21T13:56:33.978Z,41.53
2019-02-21T13:59:02.727Z,41.53
2019-02-21T14:01:31.457Z,42.70
2019-02-21T14:04:00.195Z,45.03
2019-02-21T14:06:28.931Z,44.48
2019-02-21T14:08:57.656Z,48.28
2019-02-21T14:11:26.376Z,46.33
2019-02-21T14:13:55.107Z,45.88
2019-02-21T14:16:23.833Z,43.02
2019-02-21T14:18:52.581Z,45.58
2019-02-21T14:21:21.341Z,46.75
2019-02-21T14:23:50.094Z,44.10
2019-02-21T14:26:18.898Z,46.63
2019-02-21T14:28:47.681Z,49.98
2019-02-21T14:31:16.389Z,48.83
2019-02-21T14:33:45.103Z,48.33
2019-02-21T14:36:18.799Z,49.13
2019-02-21T14:38:45.614Z,50.70
2019-02-21T14:41:14.414Z,49.25
2019-02-21T14:43:43.238Z,49.93
2019-02-21T14:46:11.938Z,45.80
2019-02-21T14:48:41.391Z,46.28
2019-02-21T14:51:10.694Z,43.15
2019-02-21T14:53:41.516Z,44.73
2019-02-21T14:56:10.221Z,41.48
2019-02-21T14:58:39.515Z,40.55
2019-02-21T15:01:08.318Z,42.88
2019-02-21T15:03:37.245Z,42.45
2019-02-21T15:06:06.234Z,40.63
2019-02-21T15:08:35.366Z,43.20
2019-02-21T15:11:04.671Z,43.35
2019-02-21T15:13:33.391Z,41.55
2019-02-21T15:16:02.183Z,43.23
2019-02-21T15:18:30.894Z,44.63
2019-02-21T15:20:59.667Z,42.58
2019-02-21T15:23:28.385Z,40.43
2019-02-21T15:25:57.122Z,38.80
2019-02-21T15:28:25.868Z,38.75
2019-02-21T15:30:54.703Z,39.48
2019-02-21T15:33:23.450Z,37.33
2019-02-21T15:35:52.151Z,37.20
2019-02-21T15:38:20.889Z,35.30
2019-02-21T15:40:49.630Z,35.28
2019-02-21T15:43:18.358Z,35.83
2019-02-21T15:45:47.062Z,32.83
2019-02-21T15:48:15.828Z,33.50
2019-02-21T15:50:44.578Z,33.10
2019-02-21T15:53:13.273Z,32.60
2019-02-21T15:55:42.036Z,33.95
2019-02-21T15:58:10.837Z,35.33
2019-02-21T16:00:39.694Z,34.40
2019-02-21T16:03:08.501Z,34.75
2019-02-21T16:05:37.314Z,33.02
2019-02-21T16:08:06.093Z,34.25
2019-02-21T16:10:34.821Z,34.75
2019-02-21T16:13:05.041Z,35.83
2019-02-21T16:15:34.011Z,35.60
2019-02-21T16:18:02.978Z,34.78
2019-02-21T16:20:31.720Z,36.95
2019-02-21T16:23:00.540Z,35.63
2019-02-21T16:25:29.336Z,37.23
2019-02-21T16:27:58.035Z,37.23
2019-02-21T16:30:26.730Z,35.38
2019-02-21T16:32:55.471Z,35.33
2019-02-21T16:35:24.184Z,35.92
2019-02-21T16:37:52.963Z,35.70
2019-02-21T16:40:21.761Z,35.88
2019-02-21T16:42:50.461Z,37.65
2019-02-21T16:45:19.196Z,36.60
2019-02-21T16:47:48.027Z,35.68
2019-02-21T16:50:28.848Z,38.17
2019-02-21T16:52:48.158Z,36.55
2019-02-21T16:55:18.045Z,36.70
2019-02-21T16:57:46.842Z,35.88
2019-02-21T17:00:16.599Z,35.63
2019-02-21T17:02:45.359Z,36.60
2019-02-21T17:05:14.874Z,33.90
2019-02-21T17:07:43.613Z,33.18
2019-02-21T17:10:13.598Z,34.60
2019-02-21T17:12:42.767Z,32.70
2019-02-21T17:15:12.055Z,33.18
2019-02-21T17:17:42.172Z,32.28
2019-02-21T17:20:12.372Z,32.90
2019-02-21T17:22:41.236Z,32.50
2019-02-21T17:25:10.950Z,34.55
2019-02-21T17:27:39.726Z,33.45
2019-02-21T17:30:09.668Z,35.17
2019-02-21T17:32:38.398Z,33.88
2019-02-21T17:35:07.147Z,35.55
2019-02-21T17:37:35.915Z,34.95
2019-02-21T17:40:05.067Z,35.03
2019-02-21T17:42:33.786Z,35.28
2019-02-21T17:45:02.505Z,35.00
2019-02-21T17:47:32.745Z,33.75
2019-02-21T17:50:01.784Z,36.53
2019-02-21T17:52:30.629Z,35.52
2019-02-21T17:54:59.418Z,34.75
2019-02-21T17:57:28.118Z,32.73
2019-02-21T17:59:56.854Z,35.40
2019-02-21T18:02:25.971Z,34.20
2019-02-21T18:04:54.770Z,33.55
2019-02-21T18:07:23.477Z,34.48
2019-02-21T18:09:53.770Z,33.20
2019-02-21T18:12:22.534Z,34.50
2019-02-21T18:14:51.732Z,32.17
2019-02-21T18:17:20.509Z,30.70
2019-02-21T18:19:49.242Z,33.78
2019-02-21T18:22:18.036Z,33.83
2019-02-21T18:24:47.071Z,32.42
2019-02-21T18:27:15.795Z,33.08
2019-02-21T18:29:45.176Z,33.60
2019-02-21T18:32:13.967Z,32.70
2019-02-21T18:34:43.460Z,32.25
2019-02-21T18:37:12.627Z,30.85
2019-02-21T18:39:47.511Z,31.70
2019-02-21T18:42:16.674Z,32.53
2019-02-21T18:44:47.835Z,35.58
2019-02-21T18:47:16.763Z,33.48
2019-02-21T18:49:45.663Z,31.95
2019-02-21T18:52:14.759Z,30.08
2019-02-21T18:54:43.604Z,30.75
2019-02-21T18:57:12.678Z,30.97
2019-02-21T18:59:41.542Z,31.40
2019-02-21T19:02:10.698Z,30.15
2019-02-21T19:04:40.126Z,32.10
2019-02-21T19:07:09.136Z,32.17
2019-02-21T19:09:38.542Z,31.37
2019-02-21T19:12:07.480Z,31.55
2019-02-21T19:14:36.442Z,32.90
2019-02-21T19:17:08.719Z,32.28
2019-02-21T19:19:37.875Z,33.58
2019-02-21T19:22:06.806Z,33.00
2019-02-21T19:24:37.110Z,30.90
2019-02-21T19:27:07.342Z,32.78
2019-02-21T19:29:36.255Z,31.60
2019-02-21T19:32:05.722Z,32.88
2019-02-21T19:34:34.868Z,33.02
2019-02-21T19:37:03.918Z,32.25
2019-02-21T19:39:32.708Z,32.88
2019-02-21T19:42:01.754Z,34.53
2019-02-21T19:44:30.488Z,33.60
2019-02-21T19:46:59.205Z,31.40
2019-02-21T19:49:27.982Z,31.68
2019-02-21T19:51:56.714Z,32.45
2019-02-21T19:54:25.482Z,32.93
2019-02-21T19:56:54.241Z,33.75
2019-02-21T19:59:22.966Z,34.08
2019-02-21T20:01:52.198Z,35.48
2019-02-21T20:04:21.627Z,35.70
2019-02-21T20:06:50.451Z,36.00
2019-02-21T20:09:19.295Z,35.13
2019-02-21T20:11:49.099Z,35.35
2019-02-21T20:14:18.138Z,39.65
2019-02-21T20:16:47.041Z,38.73
2019-02-21T20:19:15.838Z,36.83
2019-02-21T20:21:45.284Z,34.73
2019-02-21T20:24:14.936Z,35.43
2019-02-21T20:26:43.694Z,34.58
2019-02-21T20:29:12.570Z,34.00
2019-02-21T20:31:41.507Z,34.33
2019-02-21T20:34:12.866Z,34.20
2019-02-21T20:36:50.653Z,36.23
2019-02-21T20:39:13.001Z,35.43
2019-02-21T20:41:41.746Z,33.60
2019-02-21T20:44:10.530Z,31.75
2019-02-21T20:46:39.287Z,33.58
2019-02-21T20:49:08.110Z,33.90
2019-02-21T20:51:36.907Z,35.25
2019-02-21T20:54:05.728Z,36.08
2019-02-21T20:56:34.503Z,36.13
2019-02-21T20:59:05.274Z,37.17
2019-02-21T21:01:34.010Z,40.63
2019-02-21T21:04:02.731Z,37.95
2019-02-21T21:06:31.462Z,41.30
2019-02-21T21:09:00.214Z,39.95
2019-02-21T21:11:28.918Z,40.35
2019-02-21T21:13:57.644Z,41.90
2019-02-21T21:16:26.529Z,41.55
2019-02-21T21:18:55.311Z,41.60
2019-02-21T21:21:24.096Z,43.75
2019-02-21T21:23:52.814Z,42.10
2019-02-21T21:26:21.512Z,43.68
2019-02-21T21:28:50.266Z,45.45
2019-02-21T21:31:19.009Z,46.28
2019-02-21T21:33:47.793Z,47.67
2019-02-21T21:36:17.523Z,47.08
2019-02-21T21:38:53.640Z,44.60
2019-02-21T21:41:16.807Z,51.23
2019-02-21T21:43:45.532Z,47.80
2019-02-21T21:46:14.566Z,48.05
2019-02-21T21:48:43.273Z,50.15
2019-02-21T21:51:12.266Z,49.00
2019-02-21T21:53:41.816Z,48.63
2019-02-21T21:56:10.545Z,50.03
2019-02-21T21:58:40.866Z,50.17
2019-02-21T22:01:09.554Z,54.25
2019-02-21T22:03:38.495Z,49.48
2019-02-21T22:06:07.771Z,51.80
2019-02-21T22:08:38.039Z,49.35
2019-02-21T22:11:09.881Z,46.83
2019-02-21T22:13:38.963Z,49.33
2019-02-21T22:19:19.685Z,49.10
2019-02-21T22:22:16.239Z,50.95
2019-02-21T22:25:02.688Z,49.88
2019-02-21T22:27:33.478Z,50.10
2019-02-21T22:30:02.234Z,50.98
2019-02-21T22:32:31.003Z,49.55
2019-02-21T22:34:59.763Z,50.43
2019-02-21T22:37:28.595Z,52.78
2019-02-21T22:39:57.306Z,52.23
2019-02-21T22:42:26.089Z,51.25
2019-02-21T22:44:54.854Z,50.60
2019-02-21T22:47:23.608Z,50.12
2019-02-21T22:49:52.343Z,50.08
2019-02-21T22:52:21.103Z,52.75
2019-02-21T22:54:49.822Z,54.60
2019-02-21T22:57:18.626Z,50.60
2019-02-21T22:59:47.338Z,52.45
2019-02-21T23:02:16.599Z,51.92
2019-02-21T23:05:01.958Z,52.35
2019-02-21T23:07:56.222Z,51.77
2019-02-21T23:10:24.966Z,52.65
2019-02-21T23:12:53.670Z,49.63
2019-02-21T23:15:22.391Z,47.85
2019-02-21T23:17:51.118Z,49.83
2019-02-21T23:20:20.109Z,52.00
2019-02-21T23:22:48.810Z,49.70
2019-02-21T23:25:17.546Z,52.75
2019-02-21T23:27:46.247Z,51.13
2019-02-21T23:30:15.014Z,49.42
2019-02-21T23:32:43.770Z,46.28
2019-02-21T23:35:18.054Z,49.35
2019-02-21T23:37:46.778Z,47.30
2019-02-21T23:40:15.515Z,48.52
2019-02-21T23:42:44.250Z,48.70
2019-02-21T23:45:13.038Z,52.80
2019-02-21T23:47:49.384Z,51.05
2019-02-21T23:50:12.199Z,50.10
2019-02-21T23:52:40.934Z,52.53
2019-02-21T23:55:09.695Z,49.60
2019-02-21T23:57:38.393Z,49.38
